sensor_id;sensor_type;location;lat;lon;timestamp;temperature;humidity
69464;DHT22;56665;41.106;16.688;2023-08-30T00:01:33;24.59;52.10
69464;DHT22;56665;41.106;16.688;2023-08-30T00:04:37;24.53;52.03
69464;DHT22;56665;41.106;16.688;2023-08-30T00:07:42;24.51;52.33
69464;DHT22;56665;41.106;16.688;2023-08-30T00:10:46;24.46;52.30
69464;DHT22;56665;41.106;16.688;2023-08-30T00:13:50;24.36;52.28
69464;DHT22;56665;41.106;16.688;2023-08-30T00:16:53;24.29;52.63
69464;DHT22;56665;41.106;16.688;2023-08-30T00:19:58;24.18;53.11
69464;DHT22;56665;41.106;16.688;2023-08-30T00:23:01;24.11;53.42
69464;DHT22;56665;41.106;16.688;2023-08-30T00:26:05;24.08;53.23
69464;DHT22;56665;41.106;16.688;2023-08-30T00:29:09;24.02;53.53
69464;DHT22;56665;41.106;16.688;2023-08-30T00:32:13;23.98;53.77
69464;DHT22;56665;41.106;16.688;2023-08-30T00:35:17;23.93;53.96
69464;DHT22;56665;41.106;16.688;2023-08-30T00:38:22;23.87;53.81
69464;DHT22;56665;41.106;16.688;2023-08-30T00:41:26;23.75;53.91
69464;DHT22;56665;41.106;16.688;2023-08-30T00:44:30;23.71;54.31
69464;DHT22;56665;41.106;16.688;2023-08-30T00:47:35;23.64;54.37
69464;DHT22;56665;41.106;16.688;2023-08-30T00:50:39;23.63;54.42
69464;DHT22;56665;41.106;16.688;2023-08-30T00:53:44;23.58;54.59
69464;DHT22;56665;41.106;16.688;2023-08-30T00:56:47;23.55;54.89
69464;DHT22;56665;41.106;16.688;2023-08-30T00:59:52;23.53;54.71
69464;DHT22;56665;41.106;16.688;2023-08-30T01:02:58;23.51;55.03
69464;DHT22;56665;41.106;16.688;2023-08-30T01:06:04;23.54;54.40
69464;DHT22;56665;41.106;16.688;2023-08-30T01:09:08;23.51;54.42
69464;DHT22;56665;41.106;16.688;2023-08-30T01:12:33;23.50;54.51
69464;DHT22;56665;41.106;16.688;2023-08-30T01:15:40;23.46;54.59
69464;DHT22;56665;41.106;16.688;2023-08-30T01:18:45;23.49;54.64
69464;DHT22;56665;41.106;16.688;2023-08-30T01:21:55;23.47;54.69
69464;DHT22;56665;41.106;16.688;2023-08-30T01:25:12;23.50;54.77
69464;DHT22;56665;41.106;16.688;2023-08-30T01:28:21;23.57;54.70
69464;DHT22;56665;41.106;16.688;2023-08-30T01:31:29;23.60;54.47
69464;DHT22;56665;41.106;16.688;2023-08-30T01:34:36;23.63;54.60
69464;DHT22;56665;41.106;16.688;2023-08-30T01:37:41;23.63;54.57
69464;DHT22;56665;41.106;16.688;2023-08-30T01:40:45;23.70;54.56
69464;DHT22;56665;41.106;16.688;2023-08-30T01:43:50;23.68;54.46
69464;DHT22;56665;41.106;16.688;2023-08-30T01:46:56;23.65;54.88
69464;DHT22;56665;41.106;16.688;2023-08-30T01:50:01;23.67;54.53
69464;DHT22;56665;41.106;16.688;2023-08-30T01:53:07;23.68;54.89
69464;DHT22;56665;41.106;16.688;2023-08-30T01:56:12;23.65;54.73
69464;DHT22;56665;41.106;16.688;2023-08-30T01:59:16;23.64;54.79
69464;DHT22;56665;41.106;16.688;2023-08-30T02:02:19;23.61;54.93
69464;DHT22;56665;41.106;16.688;2023-08-30T02:05:24;23.61;54.90
69464;DHT22;56665;41.106;16.688;2023-08-30T02:08:41;23.58;54.81
69464;DHT22;56665;41.106;16.688;2023-08-30T02:11:46;23.58;55.24
69464;DHT22;56665;41.106;16.688;2023-08-30T02:14:52;23.57;55.18
69464;DHT22;56665;41.106;16.688;2023-08-30T02:17:57;23.53;55.13
69464;DHT22;56665;41.106;16.688;2023-08-30T02:21:01;23.50;55.18
69464;DHT22;56665;41.106;16.688;2023-08-30T02:24:05;23.44;55.54
69464;DHT22;56665;41.106;16.688;2023-08-30T02:27:09;23.47;55.28
69464;DHT22;56665;41.106;16.688;2023-08-30T02:30:14;23.55;55.11
69464;DHT22;56665;41.106;16.688;2023-08-30T02:33:19;23.51;55.29
69464;DHT22;56665;41.106;16.688;2023-08-30T02:36:24;23.44;55.24
69464;DHT22;56665;41.106;16.688;2023-08-30T02:39:27;23.42;55.29
69464;DHT22;56665;41.106;16.688;2023-08-30T02:42:31;23.33;55.80
69464;DHT22;56665;41.106;16.688;2023-08-30T02:45:36;23.30;55.79
69464;DHT22;56665;41.106;16.688;2023-08-30T02:48:40;23.25;55.84
69464;DHT22;56665;41.106;16.688;2023-08-30T02:51:44;23.16;55.93
69464;DHT22;56665;41.106;16.688;2023-08-30T02:54:48;23.09;56.00
69464;DHT22;56665;41.106;16.688;2023-08-30T02:57:52;22.98;56.11
69464;DHT22;56665;41.106;16.688;2023-08-30T03:00:56;22.98;56.45
69464;DHT22;56665;41.106;16.688;2023-08-30T03:03:59;22.89;56.35
69464;DHT22;56665;41.106;16.688;2023-08-30T03:07:03;22.82;56.45
69464;DHT22;56665;41.106;16.688;2023-08-30T03:10:07;22.72;56.78
69464;DHT22;56665;41.106;16.688;2023-08-30T03:13:13;22.69;56.89
69464;DHT22;56665;41.106;16.688;2023-08-30T03:16:17;22.67;56.86
69464;DHT22;56665;41.106;16.688;2023-08-30T03:19:21;22.64;56.82
69464;DHT22;56665;41.106;16.688;2023-08-30T03:22:24;22.53;56.97
69464;DHT22;56665;41.106;16.688;2023-08-30T03:25:29;22.54;57.03
69464;DHT22;56665;41.106;16.688;2023-08-30T03:28:33;22.54;56.91
69464;DHT22;56665;41.106;16.688;2023-08-30T03:31:37;22.58;56.71
69464;DHT22;56665;41.106;16.688;2023-08-30T03:34:44;22.69;56.37
69464;DHT22;56665;41.106;16.688;2023-08-30T03:37:48;22.72;56.30
69464;DHT22;56665;41.106;16.688;2023-08-30T03:40:54;22.76;56.41
69464;DHT22;56665;41.106;16.688;2023-08-30T03:43:59;22.79;56.26
69464;DHT22;56665;41.106;16.688;2023-08-30T03:47:04;22.78;56.23
69464;DHT22;56665;41.106;16.688;2023-08-30T03:50:09;22.76;56.06
69464;DHT22;56665;41.106;16.688;2023-08-30T03:53:13;22.75;56.44
69464;DHT22;56665;41.106;16.688;2023-08-30T03:56:17;22.81;56.36
69464;DHT22;56665;41.106;16.688;2023-08-30T03:59:22;22.82;56.38
69464;DHT22;56665;41.106;16.688;2023-08-30T04:02:26;22.84;56.34
69464;DHT22;56665;41.106;16.688;2023-08-30T04:05:33;22.79;56.62
69464;DHT22;56665;41.106;16.688;2023-08-30T04:08:37;22.84;56.48
69464;DHT22;56665;41.106;16.688;2023-08-30T04:11:41;22.81;56.84
69464;DHT22;56665;41.106;16.688;2023-08-30T04:14:46;22.92;56.66
69464;DHT22;56665;41.106;16.688;2023-08-30T04:17:49;22.95;56.97
69464;DHT22;56665;41.106;16.688;2023-08-30T04:20:53;23.02;56.39
69464;DHT22;56665;41.106;16.688;2023-08-30T04:23:57;23.07;56.39
69464;DHT22;56665;41.106;16.688;2023-08-30T04:27:00;23.09;56.47
69464;DHT22;56665;41.106;16.688;2023-08-30T04:30:04;23.07;56.34
69464;DHT22;56665;41.106;16.688;2023-08-30T04:33:08;23.00;56.59
69464;DHT22;56665;41.106;16.688;2023-08-30T04:36:13;23.00;56.73
69464;DHT22;56665;41.106;16.688;2023-08-30T04:39:20;22.96;56.66
69464;DHT22;56665;41.106;16.688;2023-08-30T04:42:25;22.99;56.77
69464;DHT22;56665;41.106;16.688;2023-08-30T04:45:30;22.98;56.69
69464;DHT22;56665;41.106;16.688;2023-08-30T04:48:34;23.12;56.59
69464;DHT22;56665;41.106;16.688;2023-08-30T04:51:37;23.23;56.30
69464;DHT22;56665;41.106;16.688;2023-08-30T04:54:41;23.26;56.32
69464;DHT22;56665;41.106;16.688;2023-08-30T04:57:46;23.23;56.30
69464;DHT22;56665;41.106;16.688;2023-08-30T05:00:55;23.23;56.50
69464;DHT22;56665;41.106;16.688;2023-08-30T05:03:59;23.19;56.49
69464;DHT22;56665;41.106;16.688;2023-08-30T05:07:03;23.19;56.54
69464;DHT22;56665;41.106;16.688;2023-08-30T05:10:07;23.25;56.72
69464;DHT22;56665;41.106;16.688;2023-08-30T05:13:12;23.33;56.35
69464;DHT22;56665;41.106;16.688;2023-08-30T05:16:16;23.43;56.31
69464;DHT22;56665;41.106;16.688;2023-08-30T05:19:20;23.53;56.01
69464;DHT22;56665;41.106;16.688;2023-08-30T05:22:24;23.54;55.90
69464;DHT22;56665;41.106;16.688;2023-08-30T05:25:28;23.55;56.17
69464;DHT22;56665;41.106;16.688;2023-08-30T05:28:32;23.61;56.31
69464;DHT22;56665;41.106;16.688;2023-08-30T05:31:36;23.64;56.54
69464;DHT22;56665;41.106;16.688;2023-08-30T05:35:09;23.90;56.15
69464;DHT22;56665;41.106;16.688;2023-08-30T05:38:31;24.19;55.27
69464;DHT22;56665;41.106;16.688;2023-08-30T05:41:55;24.63;53.70
69464;DHT22;56665;41.106;16.688;2023-08-30T05:44:59;25.03;53.13
69464;DHT22;56665;41.106;16.688;2023-08-30T05:48:03;25.13;52.77
69464;DHT22;56665;41.106;16.688;2023-08-30T05:51:07;25.28;52.44
69464;DHT22;56665;41.106;16.688;2023-08-30T05:54:13;25.61;51.65
69464;DHT22;56665;41.106;16.688;2023-08-30T05:57:17;25.83;51.44
69464;DHT22;56665;41.106;16.688;2023-08-30T06:00:22;26.02;51.07
69464;DHT22;56665;41.106;16.688;2023-08-30T06:03:25;26.09;50.51
69464;DHT22;56665;41.106;16.688;2023-08-30T06:06:29;26.06;50.40
69464;DHT22;56665;41.106;16.688;2023-08-30T06:09:33;26.12;50.38
69464;DHT22;56665;41.106;16.688;2023-08-30T06:12:36;26.17;49.82
69464;DHT22;56665;41.106;16.688;2023-08-30T06:15:40;25.88;50.37
69464;DHT22;56665;41.106;16.688;2023-08-30T06:18:44;25.83;50.43
69464;DHT22;56665;41.106;16.688;2023-08-30T06:21:48;25.93;50.47
69464;DHT22;56665;41.106;16.688;2023-08-30T06:24:52;25.99;50.24
69464;DHT22;56665;41.106;16.688;2023-08-30T06:27:59;26.33;49.80
69464;DHT22;56665;41.106;16.688;2023-08-30T06:31:05;26.40;49.73
69464;DHT22;56665;41.106;16.688;2023-08-30T06:34:08;26.40;49.34
69464;DHT22;56665;41.106;16.688;2023-08-30T06:37:12;26.50;48.76
69464;DHT22;56665;41.106;16.688;2023-08-30T06:40:16;26.20;49.39
69464;DHT22;56665;41.106;16.688;2023-08-30T06:43:20;26.00;49.93
69464;DHT22;56665;41.106;16.688;2023-08-30T06:46:24;26.57;49.11
69464;DHT22;56665;41.106;16.688;2023-08-30T06:49:28;27.15;48.06
69464;DHT22;56665;41.106;16.688;2023-08-30T06:52:32;27.09;47.80
69464;DHT22;56665;41.106;16.688;2023-08-30T06:55:36;27.15;47.80
69464;DHT22;56665;41.106;16.688;2023-08-30T06:58:41;27.80;46.75
69464;DHT22;56665;41.106;16.688;2023-08-30T07:01:45;28.27;45.92
69464;DHT22;56665;41.106;16.688;2023-08-30T07:04:48;28.69;45.25
69464;DHT22;56665;41.106;16.688;2023-08-30T07:07:52;29.17;44.56
69464;DHT22;56665;41.106;16.688;2023-08-30T07:10:56;29.49;43.97
69464;DHT22;56665;41.106;16.688;2023-08-30T07:14:00;29.72;43.73
69464;DHT22;56665;41.106;16.688;2023-08-30T07:17:03;30.00;43.21
69464;DHT22;56665;41.106;16.688;2023-08-30T07:20:08;30.21;42.67
69464;DHT22;56665;41.106;16.688;2023-08-30T07:23:13;30.43;42.26
69464;DHT22;56665;41.106;16.688;2023-08-30T07:26:17;30.27;42.43
69464;DHT22;56665;41.106;16.688;2023-08-30T07:29:22;30.67;42.03
69464;DHT22;56665;41.106;16.688;2023-08-30T07:32:25;30.89;41.22
69464;DHT22;56665;41.106;16.688;2023-08-30T07:35:31;31.06;41.16
69464;DHT22;56665;41.106;16.688;2023-08-30T07:38:35;31.26;40.73
69464;DHT22;56665;41.106;16.688;2023-08-30T07:41:40;31.26;40.48
69464;DHT22;56665;41.106;16.688;2023-08-30T07:44:45;31.63;40.13
69464;DHT22;56665;41.106;16.688;2023-08-30T07:47:49;31.63;40.21
69464;DHT22;56665;41.106;16.688;2023-08-30T07:50:53;31.76;39.76
69464;DHT22;56665;41.106;16.688;2023-08-30T07:53:57;32.04;39.81
69464;DHT22;56665;41.106;16.688;2023-08-30T07:57:01;32.17;39.39
69464;DHT22;56665;41.106;16.688;2023-08-30T08:00:06;32.36;38.86
69464;DHT22;56665;41.106;16.688;2023-08-30T08:03:16;32.39;38.92
69464;DHT22;56665;41.106;16.688;2023-08-30T08:06:21;32.59;38.98
69464;DHT22;56665;41.106;16.688;2023-08-30T08:09:24;32.99;38.28
69464;DHT22;56665;41.106;16.688;2023-08-30T08:12:28;32.92;38.48
69464;DHT22;56665;41.106;16.688;2023-08-30T08:15:33;32.24;39.12
69464;DHT22;56665;41.106;16.688;2023-08-30T08:18:38;31.63;39.88
69464;DHT22;56665;41.106;16.688;2023-08-30T08:21:42;31.59;40.50
69464;DHT22;56665;41.106;16.688;2023-08-30T08:24:45;31.78;40.31
69464;DHT22;56665;41.106;16.688;2023-08-30T08:27:51;31.29;40.95
69464;DHT22;56665;41.106;16.688;2023-08-30T08:30:55;31.33;40.99
69464;DHT22;56665;41.106;16.688;2023-08-30T08:34:10;33.07;37.93
69464;DHT22;56665;41.106;16.688;2023-08-30T08:37:14;33.19;37.85
69464;DHT22;56665;41.106;16.688;2023-08-30T08:40:18;33.27;37.85
69464;DHT22;56665;41.106;16.688;2023-08-30T08:43:22;34.66;35.68
69464;DHT22;56665;41.106;16.688;2023-08-30T08:46:28;34.16;36.45
69464;DHT22;56665;41.106;16.688;2023-08-30T08:49:34;34.12;36.57
69464;DHT22;56665;41.106;16.688;2023-08-30T08:52:38;35.78;34.45
69464;DHT22;56665;41.106;16.688;2023-08-30T08:55:42;35.42;35.01
69464;DHT22;56665;41.106;16.688;2023-08-30T08:58:49;34.73;35.49
69464;DHT22;56665;41.106;16.688;2023-08-30T09:01:53;35.82;34.24
69464;DHT22;56665;41.106;16.688;2023-08-30T09:04:58;36.44;33.40
69464;DHT22;56665;41.106;16.688;2023-08-30T09:08:02;36.85;32.55
69464;DHT22;56665;41.106;16.688;2023-08-30T09:11:07;37.46;32.34
69464;DHT22;56665;41.106;16.688;2023-08-30T09:14:10;37.59;32.06
69464;DHT22;56665;41.106;16.688;2023-08-30T09:17:14;36.83;32.65
69464;DHT22;56665;41.106;16.688;2023-08-30T09:20:18;35.21;34.79
69464;DHT22;56665;41.106;16.688;2023-08-30T09:23:24;33.51;36.66
69464;DHT22;56665;41.106;16.688;2023-08-30T09:26:30;32.25;38.24
69464;DHT22;56665;41.106;16.688;2023-08-30T09:29:37;33.17;37.26
69464;DHT22;56665;41.106;16.688;2023-08-30T09:32:47;33.92;36.38
69464;DHT22;56665;41.106;16.688;2023-08-30T09:35:50;34.09;35.71
69464;DHT22;56665;41.106;16.688;2023-08-30T09:38:54;34.02;35.80
69464;DHT22;56665;41.106;16.688;2023-08-30T09:42:03;34.70;35.12
69464;DHT22;56665;41.106;16.688;2023-08-30T09:45:25;34.38;35.45
69464;DHT22;56665;41.106;16.688;2023-08-30T09:48:29;34.01;35.81
69464;DHT22;56665;41.106;16.688;2023-08-30T09:51:35;34.61;34.04
69464;DHT22;56665;41.106;16.688;2023-08-30T09:54:43;34.91;33.71
69464;DHT22;56665;41.106;16.688;2023-08-30T09:57:48;34.21;34.81
69464;DHT22;56665;41.106;16.688;2023-08-30T10:00:52;33.68;35.24
69464;DHT22;56665;41.106;16.688;2023-08-30T10:03:57;33.00;36.23
69464;DHT22;56665;41.106;16.688;2023-08-30T10:07:01;33.78;35.68
69464;DHT22;56665;41.106;16.688;2023-08-30T10:10:08;33.81;35.09
69464;DHT22;56665;41.106;16.688;2023-08-30T10:13:14;33.70;35.14
69464;DHT22;56665;41.106;16.688;2023-08-30T10:16:19;34.76;33.40
69464;DHT22;56665;41.106;16.688;2023-08-30T10:19:27;35.45;32.50
69464;DHT22;56665;41.106;16.688;2023-08-30T10:22:32;36.09;31.60
69464;DHT22;56665;41.106;16.688;2023-08-30T10:25:36;35.28;32.73
69464;DHT22;56665;41.106;16.688;2023-08-30T10:28:41;34.50;33.50
69464;DHT22;56665;41.106;16.688;2023-08-30T10:31:45;34.15;33.97
69464;DHT22;56665;41.106;16.688;2023-08-30T10:34:50;34.39;33.69
69464;DHT22;56665;41.106;16.688;2023-08-30T10:37:59;34.61;33.55
69464;DHT22;56665;41.106;16.688;2023-08-30T10:41:07;34.25;33.77
69464;DHT22;56665;41.106;16.688;2023-08-30T10:44:13;35.11;33.00
69464;DHT22;56665;41.106;16.688;2023-08-30T10:47:26;36.22;31.89
69464;DHT22;56665;41.106;16.688;2023-08-30T10:50:32;35.69;32.77
69464;DHT22;56665;41.106;16.688;2023-08-30T10:53:36;34.83;33.81
69464;DHT22;56665;41.106;16.688;2023-08-30T11:03:19;35.79;33.11
69464;DHT22;56665;41.106;16.688;2023-08-30T11:06:22;35.95;33.09
69464;DHT22;56665;41.106;16.688;2023-08-30T11:09:27;36.41;32.25
69464;DHT22;56665;41.106;16.688;2023-08-30T11:12:33;37.32;30.97
69464;DHT22;56665;41.106;16.688;2023-08-30T11:15:36;36.95;31.46
69464;DHT22;56665;41.106;16.688;2023-08-30T11:18:40;35.58;33.11
69464;DHT22;56665;41.106;16.688;2023-08-30T11:21:48;34.96;33.78
69464;DHT22;56665;41.106;16.688;2023-08-30T11:24:52;34.21;34.23
69464;DHT22;56665;41.106;16.688;2023-08-30T11:28:03;33.61;35.17
69464;DHT22;56665;41.106;16.688;2023-08-30T11:31:06;33.39;35.57
69464;DHT22;56665;41.106;16.688;2023-08-30T11:34:12;33.14;36.01
69464;DHT22;56665;41.106;16.688;2023-08-30T11:37:16;33.37;36.10
69464;DHT22;56665;41.106;16.688;2023-08-30T11:40:22;33.39;36.32
69464;DHT22;56665;41.106;16.688;2023-08-30T11:43:25;33.49;36.05
69464;DHT22;56665;41.106;16.688;2023-08-30T11:46:30;33.58;35.98
69464;DHT22;56665;41.106;16.688;2023-08-30T11:49:35;34.35;34.88
69464;DHT22;56665;41.106;16.688;2023-08-30T11:52:40;35.39;33.45
69464;DHT22;56665;41.106;16.688;2023-08-30T11:55:45;35.23;33.40
69464;DHT22;56665;41.106;16.688;2023-08-30T11:58:49;35.03;33.33
69464;DHT22;56665;41.106;16.688;2023-08-30T12:01:55;34.93;33.66
69464;DHT22;56665;41.106;16.688;2023-08-30T12:04:58;34.83;33.91
69464;DHT22;56665;41.106;16.688;2023-08-30T12:08:04;34.98;34.05
69464;DHT22;56665;41.106;16.688;2023-08-30T12:11:17;34.05;39.25
69464;DHT22;56665;41.106;16.688;2023-08-30T12:14:21;33.29;40.70
69464;DHT22;56665;41.106;16.688;2023-08-30T12:17:25;32.89;40.95
69464;DHT22;56665;41.106;16.688;2023-08-30T12:20:30;32.17;41.58
69464;DHT22;56665;41.106;16.688;2023-08-30T12:23:34;31.80;42.41
69464;DHT22;56665;41.106;16.688;2023-08-30T12:26:37;31.42;43.37
69464;DHT22;56665;41.106;16.688;2023-08-30T12:29:41;31.11;44.77
69464;DHT22;56665;41.106;16.688;2023-08-30T12:32:46;30.99;45.17
69464;DHT22;56665;41.106;16.688;2023-08-30T12:35:50;30.00;47.31
69464;DHT22;56665;41.106;16.688;2023-08-30T12:38:55;29.62;47.88
69464;DHT22;56665;41.106;16.688;2023-08-30T12:41:59;29.51;47.87
69464;DHT22;56665;41.106;16.688;2023-08-30T12:45:04;29.41;47.58
69464;DHT22;56665;41.106;16.688;2023-08-30T12:48:10;29.44;47.30
69464;DHT22;56665;41.106;16.688;2023-08-30T12:51:14;29.82;46.72
69464;DHT22;56665;41.106;16.688;2023-08-30T12:54:18;29.88;46.68
69464;DHT22;56665;41.106;16.688;2023-08-30T12:57:22;29.85;47.25
69464;DHT22;56665;41.106;16.688;2023-08-30T13:00:26;29.42;48.44
69464;DHT22;56665;41.106;16.688;2023-08-30T13:03:30;28.82;49.48
69464;DHT22;56665;41.106;16.688;2023-08-30T13:06:33;28.86;49.26
69464;DHT22;56665;41.106;16.688;2023-08-30T13:09:37;28.39;50.11
69464;DHT22;56665;41.106;16.688;2023-08-30T13:12:41;28.15;50.68
69464;DHT22;56665;41.106;16.688;2023-08-30T13:15:44;27.81;51.40
69464;DHT22;56665;41.106;16.688;2023-08-30T13:18:48;27.90;50.75
69464;DHT22;56665;41.106;16.688;2023-08-30T13:21:52;27.94;51.00
69464;DHT22;56665;41.106;16.688;2023-08-30T13:24:55;27.82;51.45
69464;DHT22;56665;41.106;16.688;2023-08-30T13:27:59;27.87;51.17
69464;DHT22;56665;41.106;16.688;2023-08-30T13:31:06;27.84;51.04
69464;DHT22;56665;41.106;16.688;2023-08-30T13:34:10;27.87;51.04
69464;DHT22;56665;41.106;16.688;2023-08-30T13:37:14;27.88;51.05
69464;DHT22;56665;41.106;16.688;2023-08-30T13:40:18;27.80;50.93
69464;DHT22;56665;41.106;16.688;2023-08-30T13:43:21;27.81;51.58
69464;DHT22;56665;41.106;16.688;2023-08-30T13:46:25;28.24;51.30
69464;DHT22;56665;41.106;16.688;2023-08-30T13:49:29;28.80;49.87
69464;DHT22;56665;41.106;16.688;2023-08-30T13:52:33;28.77;49.67
69464;DHT22;56665;41.106;16.688;2023-08-30T13:55:37;28.76;49.68
69464;DHT22;56665;41.106;16.688;2023-08-30T13:58:41;29.45;48.78
69464;DHT22;56665;41.106;16.688;2023-08-30T14:01:45;29.57;48.15
69464;DHT22;56665;41.106;16.688;2023-08-30T14:04:48;29.11;49.64
69464;DHT22;56665;41.106;16.688;2023-08-30T14:07:52;28.90;49.96
69464;DHT22;56665;41.106;16.688;2023-08-30T14:10:56;28.79;49.38
69464;DHT22;56665;41.106;16.688;2023-08-30T14:14:00;28.52;48.94
69464;DHT22;56665;41.106;16.688;2023-08-30T14:17:05;28.35;48.70
69464;DHT22;56665;41.106;16.688;2023-08-30T14:20:10;28.36;48.58
69464;DHT22;56665;41.106;16.688;2023-08-30T14:23:14;28.49;48.83
69464;DHT22;56665;41.106;16.688;2023-08-30T14:26:18;28.60;48.74
69464;DHT22;56665;41.106;16.688;2023-08-30T14:29:22;28.66;48.72
69464;DHT22;56665;41.106;16.688;2023-08-30T14:32:25;28.56;49.33
69464;DHT22;56665;41.106;16.688;2023-08-30T14:35:29;28.65;49.23
69464;DHT22;56665;41.106;16.688;2023-08-30T14:38:35;28.82;49.44
69464;DHT22;56665;41.106;16.688;2023-08-30T14:41:40;29.11;49.10
69464;DHT22;56665;41.106;16.688;2023-08-30T14:44:43;29.10;49.31
69464;DHT22;56665;41.106;16.688;2023-08-30T14:47:47;28.59;50.32
69464;DHT22;56665;41.106;16.688;2023-08-30T14:50:51;28.48;50.56
69464;DHT22;56665;41.106;16.688;2023-08-30T14:53:55;28.45;50.38
69464;DHT22;56665;41.106;16.688;2023-08-30T14:56:59;28.24;50.64
69464;DHT22;56665;41.106;16.688;2023-08-30T15:00:02;28.22;50.97
69464;DHT22;56665;41.106;16.688;2023-08-30T15:03:08;28.21;51.18
69464;DHT22;56665;41.106;16.688;2023-08-30T15:06:11;28.53;50.48
69464;DHT22;56665;41.106;16.688;2023-08-30T15:09:15;28.79;49.89
69464;DHT22;56665;41.106;16.688;2023-08-30T15:12:19;29.07;48.98
69464;DHT22;56665;41.106;16.688;2023-08-30T15:15:23;29.20;48.70
69464;DHT22;56665;41.106;16.688;2023-08-30T15:18:27;29.34;48.04
69464;DHT22;56665;41.106;16.688;2023-08-30T15:21:31;29.55;47.32
69464;DHT22;56665;41.106;16.688;2023-08-30T15:24:34;29.66;47.23
69464;DHT22;56665;41.106;16.688;2023-08-30T15:27:39;29.48;47.32
69464;DHT22;56665;41.106;16.688;2023-08-30T15:30:46;29.17;47.91
69464;DHT22;56665;41.106;16.688;2023-08-30T15:33:49;28.90;48.58
69464;DHT22;56665;41.106;16.688;2023-08-30T15:36:53;28.72;48.71
69464;DHT22;56665;41.106;16.688;2023-08-30T15:40:02;28.43;49.24
69464;DHT22;56665;41.106;16.688;2023-08-30T15:43:07;28.42;49.86
69464;DHT22;56665;41.106;16.688;2023-08-30T15:46:12;28.53;49.74
69464;DHT22;56665;41.106;16.688;2023-08-30T15:49:15;28.62;49.25
69464;DHT22;56665;41.106;16.688;2023-08-30T15:52:19;28.56;49.15
69464;DHT22;56665;41.106;16.688;2023-08-30T15:55:23;28.62;48.38
69464;DHT22;56665;41.106;16.688;2023-08-30T15:58:29;28.48;48.73
69464;DHT22;56665;41.106;16.688;2023-08-30T16:01:33;28.40;48.79
69464;DHT22;56665;41.106;16.688;2023-08-30T16:04:37;28.43;48.04
69464;DHT22;56665;41.106;16.688;2023-08-30T16:07:40;28.53;45.85
69464;DHT22;56665;41.106;16.688;2023-08-30T16:10:52;28.63;43.11
69464;DHT22;56665;41.106;16.688;2023-08-30T16:13:56;28.72;44.16
69464;DHT22;56665;41.106;16.688;2023-08-30T16:17:01;28.72;41.14
69464;DHT22;56665;41.106;16.688;2023-08-30T16:20:05;28.70;41.34
69464;DHT22;56665;41.106;16.688;2023-08-30T16:23:09;28.59;41.19
69464;DHT22;56665;41.106;16.688;2023-08-30T16:26:14;28.49;40.71
69464;DHT22;56665;41.106;16.688;2023-08-30T16:29:17;28.29;40.60
69464;DHT22;56665;41.106;16.688;2023-08-30T16:32:21;28.18;40.80
69464;DHT22;56665;41.106;16.688;2023-08-30T16:35:25;28.08;41.10
69464;DHT22;56665;41.106;16.688;2023-08-30T16:38:29;28.02;41.08
69464;DHT22;56665;41.106;16.688;2023-08-30T16:41:32;28.00;40.32
69464;DHT22;56665;41.106;16.688;2023-08-30T16:44:36;27.97;39.92
69464;DHT22;56665;41.106;16.688;2023-08-30T16:47:40;27.90;39.75
69464;DHT22;56665;41.106;16.688;2023-08-30T16:50:44;27.87;39.55
69464;DHT22;56665;41.106;16.688;2023-08-30T16:53:48;27.81;40.15
69464;DHT22;56665;41.106;16.688;2023-08-30T16:56:53;27.71;39.93
69464;DHT22;56665;41.106;16.688;2023-08-30T16:59:58;27.63;40.14
69464;DHT22;56665;41.106;16.688;2023-08-30T17:03:01;27.56;40.15
69464;DHT22;56665;41.106;16.688;2023-08-30T17:06:07;27.50;40.29
69464;DHT22;56665;41.106;16.688;2023-08-30T17:09:11;27.46;40.66
69464;DHT22;56665;41.106;16.688;2023-08-30T17:12:15;27.43;41.14
69464;DHT22;56665;41.106;16.688;2023-08-30T17:15:19;27.34;41.71
69464;DHT22;56665;41.106;16.688;2023-08-30T17:18:26;27.23;42.30
69464;DHT22;56665;41.106;16.688;2023-08-30T17:21:30;27.19;42.62
69464;DHT22;56665;41.106;16.688;2023-08-30T17:24:34;27.11;43.02
69464;DHT22;56665;41.106;16.688;2023-08-30T17:27:39;27.02;43.49
69464;DHT22;56665;41.106;16.688;2023-08-30T17:30:47;26.94;43.80
69464;DHT22;56665;41.106;16.688;2023-08-30T17:33:51;26.87;44.12
69464;DHT22;56665;41.106;16.688;2023-08-30T17:36:56;26.80;44.27
69464;DHT22;56665;41.106;16.688;2023-08-30T17:40:01;26.77;44.73
69464;DHT22;56665;41.106;16.688;2023-08-30T17:43:06;26.69;44.89
69464;DHT22;56665;41.106;16.688;2023-08-30T17:46:10;26.64;45.31
69464;DHT22;56665;41.106;16.688;2023-08-30T17:49:13;26.58;45.58
69464;DHT22;56665;41.106;16.688;2023-08-30T17:52:17;26.50;45.69
69464;DHT22;56665;41.106;16.688;2023-08-30T17:55:21;26.40;46.03
69464;DHT22;56665;41.106;16.688;2023-08-30T17:58:26;26.31;46.35
69464;DHT22;56665;41.106;16.688;2023-08-30T18:01:31;26.27;46.41
69464;DHT22;56665;41.106;16.688;2023-08-30T18:04:35;26.19;46.65
69464;DHT22;56665;41.106;16.688;2023-08-30T18:07:39;26.14;46.68
69464;DHT22;56665;41.106;16.688;2023-08-30T18:10:44;26.06;46.99
69464;DHT22;56665;41.106;16.688;2023-08-30T18:13:48;26.03;47.07
69464;DHT22;56665;41.106;16.688;2023-08-30T18:16:52;25.97;47.10
69464;DHT22;56665;41.106;16.688;2023-08-30T18:19:56;25.92;47.22
69464;DHT22;56665;41.106;16.688;2023-08-30T18:23:00;25.89;47.33
69464;DHT22;56665;41.106;16.688;2023-08-30T18:26:03;25.76;47.52
69464;DHT22;56665;41.106;16.688;2023-08-30T18:29:08;25.71;47.53
69464;DHT22;56665;41.106;16.688;2023-08-30T18:32:12;25.62;47.73
69464;DHT22;56665;41.106;16.688;2023-08-30T18:35:16;25.58;47.87
69464;DHT22;56665;41.106;16.688;2023-08-30T18:38:20;25.55;48.12
69464;DHT22;56665;41.106;16.688;2023-08-30T18:41:24;25.55;48.03
69464;DHT22;56665;41.106;16.688;2023-08-30T18:44:28;25.54;48.31
69464;DHT22;56665;41.106;16.688;2023-08-30T18:47:33;25.48;48.22
69464;DHT22;56665;41.106;16.688;2023-08-30T18:50:40;25.46;48.35
69464;DHT22;56665;41.106;16.688;2023-08-30T18:53:44;25.44;48.26
69464;DHT22;56665;41.106;16.688;2023-08-30T18:56:48;25.38;48.56
69464;DHT22;56665;41.106;16.688;2023-08-30T18:59:53;25.34;48.69
69464;DHT22;56665;41.106;16.688;2023-08-30T19:02:57;25.30;48.74
69464;DHT22;56665;41.106;16.688;2023-08-30T19:06:01;25.25;49.03
69464;DHT22;56665;41.106;16.688;2023-08-30T19:09:08;25.27;49.18
69464;DHT22;56665;41.106;16.688;2023-08-30T19:12:12;25.28;49.06
69464;DHT22;56665;41.106;16.688;2023-08-30T19:15:16;25.24;49.06